Time;durP1;ratioP1;P1;durP2;ratioP2;P2;SDS_P1;SDS_P2;PMS_P1;PMS_P2;Temp;Humidity;BMP_temperature;BMP_pressure;BME280_temperature;BME280_humidity;BME280_pressure;Samples;Min_cycle;Max_cycle;Signal;HPM_P1;HPM_P2
2022/12/01 00:02:08;;;;;;;54.57;25.37;;;7.70;96.60;;;;;;5074640;28;20464;-80
2022/12/01 00:04:34;;;;;;;61.10;25.33;;;7.60;96.70;;;;;;5057879;28;20024;-77
2022/12/01 00:07:00;;;;;;;62.00;28.47;;;7.60;96.70;;;;;;5074397;28;20048;-78
2022/12/01 00:12:09;;;;;;;53.72;26.02;;;7.60;96.70;;;;;;5075651;28;20040;-78
2022/12/01 00:14:35;;;;;;;52.63;25.80;;;7.60;96.70;;;;;;5074167;28;20033;-78
2022/12/01 00:17:00;;;;;;;52.30;25.00;;;7.50;96.70;;;;;;5075499;28;20033;-78
2022/12/01 00:19:26;;;;;;;55.00;26.93;;;7.50;96.80;;;;;;5057357;28;20059;-78
2022/12/01 00:21:52;;;;;;;51.30;24.87;;;7.50;96.80;;;;;;5075206;28;20062;-78
2022/12/01 00:24:18;;;;;;;52.17;25.50;;;7.50;96.80;;;;;;5074179;28;20089;-78
2022/12/01 00:26:44;;;;;;;49.53;23.40;;;7.50;96.80;;;;;;5057376;28;20025;-77
2022/12/01 00:29:09;;;;;;;53.77;25.20;;;7.50;96.80;;;;;;5075175;28;20028;-77
2022/12/01 00:31:35;;;;;;;52.07;24.87;;;7.50;96.80;;;;;;5074809;28;20075;-78
2022/12/01 00:34:01;;;;;;;49.47;24.53;;;7.60;96.90;;;;;;5056972;28;20145;-77
2022/12/01 00:36:27;;;;;;;47.13;23.97;;;7.50;96.80;;;;;;5075096;28;20100;-78
2022/12/01 00:38:54;;;;;;;50.70;24.83;;;7.50;96.80;;;;;;5057054;28;20063;-78
2022/12/01 00:41:21;;;;;;;52.00;25.43;;;7.50;96.80;;;;;;5073610;28;20021;-79
2022/12/01 00:43:47;;;;;;;49.10;24.57;;;7.50;96.90;;;;;;5056889;28;20040;-76
2022/12/01 00:46:12;;;;;;;50.60;24.57;;;7.50;96.90;;;;;;5074807;28;20036;-76
2022/12/01 00:48:38;;;;;;;47.67;23.10;;;7.40;96.90;;;;;;5056872;28;20032;-75
2022/12/01 00:51:04;;;;;;;50.03;24.80;;;7.50;96.90;;;;;;5073629;28;20033;-77
2022/12/01 00:53:44;;;;;;;51.67;25.40;;;7.50;97.00;;;;;;5056812;28;20028;-75
2022/12/01 00:56:31;;;;;;;;;;;;;;;;;;;;;
2022/12/01 00:59:19;;;;;;;56.87;26.90;;;7.50;97.00;;;;;;5073638;28;20039;-77
2022/12/01 01:02:10;;;;;;;56.67;24.37;;;7.50;97.00;;;;;;5057963;28;20032;-76
2022/12/01 01:04:36;;;;;;;49.63;24.17;;;7.50;97.10;;;;;;5057953;28;20044;-75
2022/12/01 01:07:01;;;;;;;46.20;22.97;;;7.50;97.10;;;;;;5074424;28;20071;-77
2022/12/01 01:09:27;;;;;;;49.13;23.63;;;7.50;97.10;;;;;;5073163;28;20037;-77
2022/12/01 01:11:53;;;;;;;50.03;25.20;;;7.50;97.20;;;;;;5072936;28;20035;-77
2022/12/01 01:14:20;;;;;;;45.83;23.20;;;7.40;97.20;;;;;;5072969;28;20045;-78
2022/12/01 01:16:46;;;;;;;50.33;24.93;;;7.50;97.20;;;;;;5072886;28;20025;-77
2022/12/01 01:19:11;;;;;;;53.37;25.47;;;7.50;97.20;;;;;;5074243;28;20365;-77
2022/12/01 01:21:38;;;;;;;47.20;23.53;;;7.50;97.30;;;;;;5074208;28;20036;-76
2022/12/01 01:24:04;;;;;;;58.10;26.87;;;7.40;97.30;;;;;;5089676;28;20460;-75
2022/12/01 01:26:31;;;;;;;47.30;24.57;;;7.40;97.60;;;;;;5056171;28;20032;-76
2022/12/01 01:28:59;;;;;;;48.37;24.97;;;7.40;97.30;;;;;;5073031;28;20070;-76
2022/12/01 01:31:27;;;;;;;52.03;24.97;;;7.50;97.40;;;;;;5073848;28;20037;-76
2022/12/01 01:33:54;;;;;;;51.03;25.47;;;7.50;97.50;;;;;;5072324;28;20048;-76
2022/12/01 01:36:19;;;;;;;45.70;24.00;;;7.40;97.40;;;;;;5055831;28;20029;-76
2022/12/01 01:38:45;;;;;;;50.00;25.40;;;7.40;97.40;;;;;;5073819;28;20035;-76
2022/12/01 01:41:12;;;;;;;52.23;24.73;;;7.40;97.70;;;;;;5072381;28;20060;-76
2022/12/01 01:43:42;;;;;;;47.67;24.90;;;7.40;97.60;;;;;;5072207;28;20032;-76
2022/12/01 01:46:10;;;;;;;48.60;23.17;;;7.40;97.50;;;;;;5073665;28;20033;-76
2022/12/01 01:48:39;;;;;;;49.13;25.57;;;7.40;97.50;;;;;;5072397;28;20028;-76
2022/12/01 01:51:05;;;;;;;47.73;25.27;;;7.50;97.60;;;;;;5073552;28;20512;-76
2022/12/01 01:53:31;;;;;;;53.77;27.10;;;7.40;97.50;;;;;;5055601;28;20124;-78
2022/12/01 01:55:57;;;;;;;59.50;28.70;;;7.40;97.70;;;;;;5072338;28;20048;-78
2022/12/01 01:58:23;;;;;;;63.00;29.40;;;7.30;97.70;;;;;;5072216;28;20112;-78
2022/12/01 02:00:49;;;;;;;55.77;29.10;;;7.30;97.80;;;;;;5072472;28;20512;-77
2022/12/01 02:03:17;;;;;;;58.23;29.63;;;7.40;97.80;;;;;;5072205;28;20469;-75
2022/12/01 02:05:45;;;;;;;56.03;30.13;;;7.30;98.00;;;;;;5072103;28;20024;-76
2022/12/01 02:08:11;;;;;;;60.43;27.67;;;7.20;98.00;;;;;;5072168;28;20099;-76
2022/12/01 02:11:03;;;;;;;63.17;28.10;;;7.20;98.00;;;;;;5073410;28;20032;-76
2022/12/01 02:13:53;;;;;;;53.00;27.50;;;7.30;98.00;;;;;;5053422;28;20484;-78
2022/12/01 02:16:45;;;;;;;53.27;27.80;;;7.30;98.00;;;;;;5073122;28;20078;-76
2022/12/01 02:19:43;;;;;;;53.17;26.20;;;7.30;98.10;;;;;;5073187;28;20119;-76
2022/12/01 02:22:18;;;;;;;57.87;25.30;;;7.30;98.10;;;;;;5088759;28;20029;-76
2022/12/01 02:25:13;;;;;;;57.93;28.47;;;7.30;98.10;;;;;;5073169;28;20032;-76
2022/12/01 02:28:03;;;;;;;60.75;29.15;;;7.30;98.20;;;;;;5075228;28;20464;-76
2022/12/01 02:30:44;;;;;;;50.57;26.53;;;7.30;98.20;;;;;;5088595;28;20024;-76
2022/12/01 02:33:35;;;;;;;64.47;30.67;;;7.40;98.20;;;;;;5071432;28;20044;-76
2022/12/01 02:36:18;;;;;;;58.07;28.37;;;7.30;98.30;;;;;;5072954;28;20039;-76
2022/12/01 02:39:16;;;;;;;68.37;30.47;;;7.30;98.50;;;;;;5073018;28;20384;-76
2022/12/01 02:41:55;;;;;;;59.93;28.90;;;7.30;98.30;;;;;;5035827;28;20034;-78
2022/12/01 02:44:32;;;;;;;62.47;30.67;;;7.30;98.30;;;;;;5071743;28;20028;-78
2022/12/01 02:47:16;;;;;;;63.37;29.93;;;7.30;98.40;;;;;;5072921;28;20340;-75
2022/12/01 02:49:49;;;;;;;59.42;29.45;;;7.30;98.40;;;;;;5071785;28;20380;-76
2022/12/01 02:52:16;;;;;;;62.67;30.43;;;7.30;98.50;;;;;;5071642;28;20361;-75
2022/12/01 02:54:47;;;;;;;65.83;30.87;;;7.30;98.70;;;;;;5073476;28;20426;-76
2022/12/01 02:57:14;;;;;;;54.23;27.33;;;7.30;98.50;;;;;;5075678;28;20027;-76
2022/12/01 02:59:43;;;;;;;58.17;28.10;;;7.30;98.50;;;;;;5076810;28;20107;-76
2022/12/01 03:02:40;;;;;;;62.20;29.13;;;7.30;98.60;;;;;;5076900;28;20550;-76
2022/12/01 03:05:15;;;;;;;58.40;29.90;;;7.30;98.60;;;;;;5092554;28;20048;-78
2022/12/01 03:08:18;;;;;;;63.37;28.83;;;7.20;98.50;;;;;;5076659;28;20027;-76
2022/12/01 03:10:55;;;;;;;58.23;27.13;;;7.30;98.60;;;;;;5076675;28;20064;-76
2022/12/01 03:13:50;;;;;;;64.63;28.73;;;7.30;98.60;;;;;;5075220;28;20047;-75
2022/12/01 03:16:26;;;;;;;61.10;29.40;;;7.30;98.60;;;;;;5076660;28;20404;-77
2022/12/01 03:19:06;;;;;;;59.73;29.07;;;7.20;98.60;;;;;;5075302;28;20048;-79
2022/12/01 03:21:39;;;;;;;54.33;28.23;;;7.20;98.60;;;;;;5076454;28;20511;-78
2022/12/01 03:24:12;;;;;;;66.55;29.10;;;7.30;98.70;;;;;;5075125;28;20013;-78
2022/12/01 03:26:41;;;;;;;62.60;28.33;;;7.20;98.70;;;;;;5076321;28;20032;-78
2022/12/01 03:29:12;;;;;;;67.17;31.73;;;7.30;98.70;;;;;;5092039;28;20035;-78
2022/12/01 03:31:42;;;;;;;67.77;32.73;;;7.30;98.80;;;;;;5074959;28;20028;-78
2022/12/01 03:34:15;;;;;;;62.23;31.03;;;7.40;98.80;;;;;;5074774;28;20044;-76
2022/12/01 03:36:47;;;;;;;61.87;31.23;;;7.30;98.90;;;;;;5076184;28;20170;-75
2022/12/01 03:39:21;;;;;;;60.97;29.50;;;7.30;98.90;;;;;;5074828;28;20028;-76
2022/12/01 03:41:57;;;;;;;61.10;29.20;;;7.30;98.90;;;;;;5076103;28;20032;-76
2022/12/01 03:44:28;;;;;;;59.77;27.87;;;7.30;98.90;;;;;;5076041;28;20140;-76
2022/12/01 03:47:03;;;;;;;57.37;29.63;;;7.30;98.90;;;;;;5075929;28;20464;-77
2022/12/01 03:49:29;;;;;;;58.27;28.00;;;7.30;98.90;;;;;;5075894;28;20388;-77
2022/12/01 03:52:18;;;;;;;57.77;27.87;;;7.30;98.90;;;;;;5075889;28;20036;-78
2022/12/01 03:55:08;;;;;;;59.93;29.90;;;7.30;99.00;;;;;;5075809;28;20376;-78
2022/12/01 03:57:49;;;;;;;57.60;27.80;;;7.30;98.90;;;;;;5075345;28;20526;-77
2022/12/01 04:00:15;;;;;;;59.10;29.17;;;7.30;98.90;;;;;;5074605;28;20496;-77
2022/12/01 04:02:43;;;;;;;57.37;28.73;;;7.30;98.90;;;;;;5075688;28;20032;-76
2022/12/01 04:05:10;;;;;;;58.80;27.40;;;7.40;98.90;;;;;;5074000;28;20025;-77
2022/12/01 04:07:37;;;;;;;62.07;28.53;;;7.30;98.90;;;;;;5074182;28;20066;-78
2022/12/01 04:10:03;;;;;;;56.60;27.47;;;7.30;98.80;;;;;;5074334;28;20366;-78
2022/12/01 04:12:29;;;;;;;61.67;29.43;;;7.30;98.90;;;;;;5057510;28;20059;-79
2022/12/01 04:14:56;;;;;;;55.57;28.27;;;7.20;98.90;;;;;;5057710;28;20084;-78
2022/12/01 04:17:22;;;;;;;60.77;29.17;;;7.30;98.90;;;;;;5074101;28;20035;-78
2022/12/01 04:19:48;;;;;;;60.57;30.20;;;7.30;98.90;;;;;;5075115;28;20021;-78
2022/12/01 04:22:14;;;;;;;56.60;28.30;;;7.30;98.90;;;;;;5075320;28;20074;-77
2022/12/01 04:24:39;;;;;;;53.13;27.70;;;7.30;98.90;;;;;;5074152;28;20032;-78
2022/12/01 04:27:05;;;;;;;50.97;26.73;;;7.40;98.90;;;;;;5075415;28;20051;-78
2022/12/01 04:29:31;;;;;;;51.93;27.30;;;7.30;98.80;;;;;;5073999;28;20090;-76
2022/12/01 04:31:56;;;;;;;49.67;26.83;;;7.30;98.80;;;;;;5057310;28;20469;-77
2022/12/01 04:34:22;;;;;;;50.50;26.67;;;7.30;98.90;;;;;;5074930;28;20068;-78
2022/12/01 04:36:48;;;;;;;57.90;26.77;;;7.40;98.90;;;;;;5075064;28;20032;-78
2022/12/01 04:39:13;;;;;;;48.37;23.23;;;7.40;98.90;;;;;;5074003;28;20031;-76
2022/12/01 04:41:39;;;;;;;49.63;24.57;;;7.40;98.90;;;;;;5075044;28;20085;-75
2022/12/01 04:44:05;;;;;;;50.20;26.87;;;7.40;98.90;;;;;;5074893;28;20488;-75
2022/12/01 04:46:30;;;;;;;55.53;27.20;;;7.40;98.80;;;;;;5073541;28;20031;-76
2022/12/01 04:48:56;;;;;;;52.40;28.03;;;7.40;98.80;;;;;;5073772;28;20480;-77
2022/12/01 04:51:21;;;;;;;60.37;29.10;;;7.30;98.70;;;;;;5073723;28;20033;-78
2022/12/01 04:53:49;;;;;;;61.57;29.87;;;7.40;98.90;;;;;;5090065;28;20480;-78
2022/12/01 04:56:14;;;;;;;61.53;29.20;;;7.40;98.60;;;;;;5084241;28;20106;-77
2022/12/01 04:58:40;;;;;;;57.73;27.80;;;7.30;98.50;;;;;;5093153;28;20555;-76
2022/12/01 05:01:08;;;;;;;52.40;25.67;;;7.30;98.50;;;;;;5092127;28;20031;-78
2022/12/01 05:03:41;;;;;;;58.03;28.43;;;7.40;98.60;;;;;;5093779;28;20024;-78
2022/12/01 05:06:13;;;;;;;56.90;28.88;;;7.20;98.50;;;;;;5094825;28;20032;-76
2022/12/01 05:08:39;;;;;;;54.30;27.00;;;7.30;98.50;;;;;;5094467;28;20460;-76
2022/12/01 05:11:07;;;;;;;55.77;27.93;;;7.20;98.50;;;;;;5092570;28;20043;-76
2022/12/01 05:13:33;;;;;;;55.97;27.30;;;7.20;98.50;;;;;;5094478;28;20472;-79
2022/12/01 05:16:11;;;;;;;52.03;26.37;;;7.20;98.50;;;;;;5093102;28;20537;-78
2022/12/01 05:18:37;;;;;;;52.57;27.23;;;7.20;98.50;;;;;;5093949;28;20476;-78
2022/12/01 05:21:04;;;;;;;57.37;26.93;;;7.10;98.50;;;;;;5094394;28;20031;-77
2022/12/01 05:23:32;;;;;;;61.97;28.93;;;7.20;98.50;;;;;;5093213;28;20040;-78
2022/12/01 05:25:59;;;;;;;60.50;28.97;;;7.10;98.50;;;;;;5076176;28;20395;-78
2022/12/01 05:28:25;;;;;;;53.73;28.23;;;7.10;98.50;;;;;;5094297;28;20028;-78
2022/12/01 05:30:53;;;;;;;55.70;27.07;;;7.10;98.50;;;;;;5093014;28;20043;-78
2022/12/01 05:33:19;;;;;;;52.63;28.03;;;7.10;98.50;;;;;;5092618;28;20138;-76
2022/12/01 05:35:46;;;;;;;55.17;27.63;;;7.10;98.50;;;;;;5092893;28;20028;-76
2022/12/01 05:38:11;;;;;;;54.60;27.07;;;7.10;98.50;;;;;;5092871;28;20123;-78
2022/12/01 05:40:37;;;;;;;56.80;27.70;;;7.10;98.50;;;;;;5076072;28;20063;-77
2022/12/01 05:43:03;;;;;;;53.27;26.07;;;7.10;98.50;;;;;;5075941;28;20051;-78
2022/12/01 05:45:29;;;;;;;54.03;26.47;;;7.10;98.60;;;;;;5092733;28;20078;-78
2022/12/01 05:47:58;;;;;;;53.57;27.77;;;7.10;98.60;;;;;;5075840;28;20165;-77
2022/12/01 05:50:26;;;;;;;52.83;26.80;;;7.10;98.70;;;;;;5093868;28;20035;-78
2022/12/01 05:52:52;;;;;;;58.70;27.10;;;7.10;98.60;;;;;;5093682;28;20039;-78
2022/12/01 05:55:18;;;;;;;52.97;26.60;;;7.10;98.60;;;;;;5092638;28;20028;-76
2022/12/01 05:57:44;;;;;;;50.13;25.10;;;7.10;98.60;;;;;;5093786;28;20456;-76
2022/12/01 06:00:10;;;;;;;54.80;26.93;;;7.10;98.60;;;;;;5092434;28;20103;-76
2022/12/01 06:02:36;;;;;;;53.10;27.27;;;7.10;98.60;;;;;;5093729;28;20024;-77
2022/12/01 06:05:02;;;;;;;51.07;25.57;;;7.10;98.60;;;;;;5092453;28;20032;-76
2022/12/01 06:07:27;;;;;;;55.83;27.13;;;7.00;98.50;;;;;;5075120;28;20028;-77
2022/12/01 06:09:53;;;;;;;51.10;27.13;;;7.10;98.60;;;;;;5091422;28;20043;-76
2022/12/01 06:12:19;;;;;;;56.20;28.37;;;7.10;98.60;;;;;;5074298;28;20032;-78
2022/12/01 06:14:44;;;;;;;54.43;27.30;;;7.10;98.60;;;;;;5092224;28;20034;-78
2022/12/01 06:17:10;;;;;;;50.73;24.87;;;7.10;98.60;;;;;;5093436;28;20103;-78
2022/12/01 06:19:36;;;;;;;56.13;29.00;;;7.10;98.60;;;;;;5093444;28;20020;-77
2022/12/01 06:22:04;;;;;;;48.93;25.67;;;7.10;98.60;;;;;;5091504;28;20035;-76
2022/12/01 06:24:30;;;;;;;53.10;27.00;;;7.10;98.70;;;;;;5075086;28;20024;-78
2022/12/01 06:26:56;;;;;;;52.50;25.70;;;7.00;98.70;;;;;;5091640;28;20028;-77
2022/12/01 06:29:21;;;;;;;51.07;25.97;;;7.10;98.70;;;;;;5074605;28;20383;-79
2022/12/01 06:31:47;;;;;;;49.70;25.37;;;7.00;98.70;;;;;;5074771;28;20031;-78
2022/12/01 06:34:13;;;;;;;55.93;28.27;;;7.10;98.80;;;;;;5091223;28;20059;-78
2022/12/01 06:36:38;;;;;;;61.20;30.07;;;7.00;98.70;;;;;;5091497;28;20157;-77
2022/12/01 06:39:11;;;;;;;54.57;28.00;;;7.00;99.00;;;;;;5092795;28;20028;-76
2022/12/01 06:41:37;;;;;;;54.33;27.70;;;7.00;98.70;;;;;;5089287;28;20108;-79
2022/12/01 06:44:03;;;;;;;56.43;27.97;;;7.00;98.70;;;;;;5091568;28;20039;-78
2022/12/01 06:46:29;;;;;;;52.17;26.40;;;7.00;98.70;;;;;;5092512;28;20040;-77
2022/12/01 06:48:55;;;;;;;50.17;26.37;;;7.00;98.70;;;;;;5093147;28;20035;-76
2022/12/01 06:51:20;;;;;;;58.63;29.20;;;7.00;98.70;;;;;;5090487;28;20055;-76
2022/12/01 06:53:46;;;;;;;55.63;28.00;;;7.00;98.70;;;;;;5040144;28;20074;-76
2022/12/01 06:56:12;;;;;;;57.47;27.93;;;6.90;98.60;;;;;;5085237;28;20093;-79
2022/12/01 06:58:37;;;;;;;56.77;27.97;;;6.90;98.60;;;;;;5088959;28;20056;-78
2022/12/01 07:01:11;;;;;;;58.17;28.10;;;6.90;98.60;;;;;;5090596;28;20024;-78
2022/12/01 07:03:37;;;;;;;59.83;26.85;;;6.90;98.60;;;;;;5089360;28;20028;-78
2022/12/01 07:06:03;;;;;;;52.73;26.63;;;6.80;98.50;;;;;;5090836;28;20031;-77
2022/12/01 07:08:30;;;;;;;60.40;28.57;;;6.80;98.50;;;;;;5090506;28;20380;-78
2022/12/01 07:10:58;;;;;;;57.73;26.23;;;6.70;98.50;;;;;;5091554;28;20082;-78
2022/12/01 07:13:23;;;;;;;51.07;25.47;;;6.70;98.60;;;;;;5091383;28;20080;-79
2022/12/01 07:15:49;;;;;;;57.07;28.63;;;6.60;98.70;;;;;;5074481;28;20127;-79
2022/12/01 07:18:15;;;;;;;57.27;28.13;;;6.70;98.80;;;;;;5091498;28;20028;-79
2022/12/01 07:20:40;;;;;;;54.10;26.33;;;6.70;98.90;;;;;;5092410;28;20060;-78
2022/12/01 07:23:06;;;;;;;62.33;29.37;;;6.70;98.90;;;;;;5091150;28;20080;-78
2022/12/01 07:25:31;;;;;;;58.77;28.13;;;6.70;99.00;;;;;;5074253;28;20024;-76
2022/12/01 07:27:57;;;;;;;54.73;27.30;;;6.70;99.00;;;;;;5091462;28;20479;-75
2022/12/01 07:30:23;;;;;;;68.97;30.03;;;6.70;98.90;;;;;;5091608;28;20107;-76
2022/12/01 07:32:48;;;;;;;59.53;29.87;;;6.70;98.90;;;;;;5090778;28;20511;-76
2022/12/01 07:35:14;;;;;;;60.57;28.60;;;6.70;98.80;;;;;;5089713;28;20040;-78
2022/12/01 07:37:39;;;;;;;71.60;31.47;;;6.60;98.80;;;;;;5073829;28;20123;-76
2022/12/01 07:40:06;;;;;;;68.10;30.60;;;6.60;98.80;;;;;;5092165;28;20107;-78
2022/12/01 07:42:31;;;;;;;67.00;29.13;;;6.60;98.90;;;;;;5094866;28;20361;-78
2022/12/01 07:44:57;;;;;;;66.97;29.33;;;6.60;98.90;;;;;;5095071;28;20043;-76
2022/12/01 07:47:23;;;;;;;70.30;30.67;;;6.70;99.00;;;;;;5095585;28;20039;-76
2022/12/01 07:49:48;;;;;;;64.17;30.23;;;6.60;99.10;;;;;;5095090;28;20101;-76
2022/12/01 07:52:14;;;;;;;63.37;28.53;;;6.70;99.20;;;;;;5077880;28;20032;-76
2022/12/01 07:54:39;;;;;;;65.90;30.80;;;6.60;99.30;;;;;;5077529;28;20050;-76
2022/12/01 07:57:05;;;;;;;61.50;28.13;;;6.70;99.40;;;;;;5094629;28;20483;-76
2022/12/01 07:59:30;;;;;;;65.27;30.13;;;6.80;99.40;;;;;;5094864;28;20036;-75
2022/12/01 08:01:56;;;;;;;64.13;29.50;;;6.70;99.80;;;;;;5096050;28;20111;-76
2022/12/01 08:04:22;;;;;;;63.67;29.63;;;6.80;99.60;;;;;;5094612;28;20476;-76
2022/12/01 08:06:47;;;;;;;64.07;29.30;;;6.80;99.60;;;;;;5094473;28;20032;-77
2022/12/01 08:09:13;;;;;;;63.87;28.80;;;6.90;99.60;;;;;;5077494;28;20464;-77
2022/12/01 08:11:39;;;;;;;68.70;29.60;;;6.90;99.60;;;;;;5077597;28;20028;-76
2022/12/01 08:14:04;;;;;;;66.83;31.30;;;7.00;99.70;;;;;;5094282;28;20036;-77
2022/12/01 08:16:30;;;;;;;64.63;29.83;;;7.00;99.60;;;;;;5077454;28;20114;-78
2022/12/01 08:18:56;;;;;;;68.90;29.87;;;7.00;99.60;;;;;;5094549;28;20082;-77
2022/12/01 08:21:22;;;;;;;61.37;28.30;;;7.00;99.60;;;;;;5077482;28;20028;-77
2022/12/01 08:23:53;;;;;;;66.53;28.90;;;7.10;99.70;;;;;;5094153;28;20020;-77
2022/12/01 08:26:20;;;;;;;60.73;29.27;;;7.10;99.70;;;;;;5094705;28;20111;-78
2022/12/01 08:28:46;;;;;;;63.17;30.30;;;7.10;99.70;;;;;;5077093;28;20031;-78
2022/12/01 08:31:15;;;;;;;69.10;32.27;;;7.20;99.70;;;;;;5077208;28;20024;-77
2022/12/01 08:33:40;;;;;;;62.87;30.40;;;7.20;99.70;;;;;;5095158;28;20093;-76
2022/12/01 08:36:06;;;;;;;58.37;28.03;;;7.30;99.70;;;;;;5093246;28;20430;-76
2022/12/01 08:38:33;;;;;;;59.63;28.13;;;7.30;99.70;;;;;;5093934;28;20024;-77
2022/12/01 08:41:07;;;;;;;67.83;30.80;;;7.30;99.60;;;;;;5093550;28;20476;-78
2022/12/01 08:43:38;;;;;;;63.43;30.20;;;7.30;99.40;;;;;;5094041;28;20046;-79
2022/12/01 08:46:51;;;;;;;75.40;31.77;;;7.40;99.50;;;;;;5093530;28;20028;-78
2022/12/01 08:49:15;;;;;;;66.77;32.03;;;7.40;99.30;;;;;;5094312;28;20035;-77
2022/12/01 08:51:41;;;;;;;68.20;31.60;;;7.40;99.20;;;;;;5092883;28;20028;-76
2022/12/01 08:54:09;;;;;;;68.23;32.20;;;7.40;99.20;;;;;;5093555;28;20032;-76
2022/12/01 08:56:41;;;;;;;76.77;33.83;;;7.50;99.10;;;;;;5077057;28;20468;-77
2022/12/01 08:59:07;;;;;;;75.53;32.10;;;7.50;99.10;;;;;;5093236;28;20779;-76
2022/12/01 09:01:33;;;;;;;76.80;34.03;;;7.50;99.00;;;;;;5094413;28;20424;-76
2022/12/01 09:04:04;;;;;;;72.17;32.47;;;7.40;99.00;;;;;;5093344;28;20456;-77
2022/12/01 09:06:31;;;;;;;69.13;32.43;;;7.50;99.00;;;;;;5092935;28;20062;-76
2022/12/01 09:08:59;;;;;;;67.60;32.90;;;7.50;99.00;;;;;;5093541;28;20024;-76
2022/12/01 09:11:25;;;;;;;74.27;34.17;;;7.60;98.90;;;;;;5093023;28;20047;-77
2022/12/01 09:13:50;;;;;;;71.60;32.73;;;7.60;98.80;;;;;;5092140;28;20043;-76
2022/12/01 09:16:17;;;;;;;69.90;33.10;;;7.60;98.80;;;;;;5073786;28;20031;-76
2022/12/01 09:18:44;;;;;;;70.03;32.17;;;7.70;99.00;;;;;;5076085;28;20521;-76
2022/12/01 09:21:10;;;;;;;71.20;33.40;;;7.70;98.70;;;;;;5094250;28;20499;-76
2022/12/01 09:23:36;;;;;;;71.23;32.47;;;7.70;98.60;;;;;;5093200;28;20032;-76
2022/12/01 09:26:02;;;;;;;68.83;31.23;;;7.70;98.60;;;;;;5092151;28;20040;-76
2022/12/01 09:28:27;;;;;;;69.73;31.70;;;7.80;98.60;;;;;;5093380;28;20040;-76
2022/12/01 09:30:53;;;;;;;66.80;31.80;;;7.80;98.50;;;;;;5076164;28;20032;-76
2022/12/01 09:33:18;;;;;;;71.67;32.63;;;7.80;98.50;;;;;;5075830;28;20148;-76
2022/12/01 09:35:44;;;;;;;65.80;31.47;;;7.90;98.50;;;;;;5092932;28;20028;-76
2022/12/01 09:38:10;;;;;;;68.20;32.03;;;7.90;98.50;;;;;;5093735;28;20035;-76
2022/12/01 09:40:38;;;;;;;68.53;33.17;;;7.90;98.50;;;;;;5073078;28;20032;-76
2022/12/01 09:43:15;;;;;;;70.67;32.77;;;8.00;98.50;;;;;;5094046;28;20028;-76
2022/12/01 09:45:46;;;;;;;62.67;30.57;;;8.10;98.50;;;;;;5092659;28;20448;-76
2022/12/01 09:48:30;;;;;;;63.13;30.17;;;8.10;98.50;;;;;;5092566;28;20365;-75
2022/12/01 09:50:56;;;;;;;60.40;30.05;;;8.20;98.40;;;;;;5093754;28;20024;-75
2022/12/01 09:53:25;;;;;;;54.13;27.43;;;8.30;98.40;;;;;;5093708;28;20028;-76
2022/12/01 09:55:51;;;;;;;58.80;29.40;;;8.30;98.40;;;;;;5093536;28;20038;-75
2022/12/01 09:58:21;;;;;;;64.20;31.20;;;8.30;98.40;;;;;;5075368;28;20459;-76
2022/12/01 10:00:48;;;;;;;59.67;29.97;;;8.40;98.30;;;;;;5091452;28;20016;-76
2022/12/01 10:03:20;;;;;;;59.23;29.97;;;8.50;98.10;;;;;;5090486;28;20392;-76
2022/12/01 10:06:19;;;;;;;57.47;31.30;;;8.70;98.00;;;;;;5093669;28;20425;-76
2022/12/01 10:09:02;;;;;;;64.27;30.00;;;8.60;98.00;;;;;;5089489;28;20106;-77
2022/12/01 10:11:35;;;;;;;63.28;30.40;;;8.60;97.90;;;;;;5093614;28;20016;-77
2022/12/01 10:14:03;;;;;;;65.83;31.70;;;8.60;97.80;;;;;;5093470;28;20426;-77
2022/12/01 10:17:02;;;;;;;63.53;31.50;;;8.70;97.40;;;;;;5092195;28;20032;-77
2022/12/01 10:19:50;;;;;;;68.23;32.87;;;8.70;97.20;;;;;;5092434;28;20024;-78
2022/12/01 10:22:40;;;;;;;64.07;32.07;;;8.70;97.10;;;;;;5093291;28;20422;-80
2022/12/01 10:25:17;;;;;;;67.37;31.53;;;8.80;96.80;;;;;;5091908;28;20075;-80
2022/12/01 10:28:11;;;;;;;57.93;29.50;;;8.80;96.80;;;;;;5092074;28;20127;-80
2022/12/01 10:30:47;;;;;;;65.27;31.57;;;8.90;96.70;;;;;;5092260;28;20069;-79
2022/12/01 10:33:19;;;;;;;61.33;30.57;;;8.90;96.00;;;;;;5091547;28;20062;-79
2022/12/01 10:35:45;;;;;;;53.77;28.00;;;9.00;95.80;;;;;;5093311;28;20060;-79
2022/12/01 10:38:18;;;;;;;62.30;30.87;;;8.90;95.80;;;;;;5091936;28;20063;-79
2022/12/01 10:40:44;;;;;;;57.33;28.47;;;8.90;95.30;;;;;;5093270;28;20024;-79
2022/12/01 10:43:09;;;;;;;64.00;32.47;;;8.90;95.30;;;;;;5093074;28;20100;-79
2022/12/01 10:45:42;;;;;;;59.70;29.93;;;8.90;95.20;;;;;;5093153;28;20480;-79
2022/12/01 10:48:21;;;;;;;54.80;29.07;;;8.80;95.00;;;;;;5093127;28;20020;-79
2022/12/01 10:50:50;;;;;;;59.33;30.37;;;8.80;95.00;;;;;;5075008;28;20028;-79
2022/12/01 10:53:22;;;;;;;59.37;29.47;;;8.80;95.20;;;;;;5091687;28;20031;-79
2022/12/01 10:55:57;;;;;;;51.10;26.93;;;8.90;95.20;;;;;;5091960;28;20176;-79
2022/12/01 10:58:23;;;;;;;56.50;28.53;;;9.00;95.30;;;;;;5091652;28;20024;-79
2022/12/01 11:00:58;;;;;;;52.97;29.17;;;9.20;95.20;;;;;;5093047;28;20033;-79
2022/12/01 11:03:30;;;;;;;48.63;27.93;;;9.30;95.20;;;;;;5091953;28;20050;-79
2022/12/01 11:05:59;;;;;;;45.90;26.00;;;9.50;95.20;;;;;;5092006;28;20036;-79
2022/12/01 11:08:49;;;;;;;49.13;25.93;;;9.60;94.70;;;;;;5092637;28;20032;-79
2022/12/01 11:11:34;;;;;;;41.88;24.00;;;10.00;94.90;;;;;;5092775;28;20035;-79
2022/12/01 11:14:22;;;;;;;41.70;24.42;;;10.50;95.40;;;;;;5092704;28;20126;-79
2022/12/01 11:16:50;;;;;;;44.92;24.55;;;11.00;95.10;;;;;;5095103;28;20077;-79
2022/12/01 11:19:31;;;;;;;40.78;23.85;;;11.40;95.00;;;;;;5096772;28;20027;-79
2022/12/01 11:22:00;;;;;;;41.17;23.83;;;11.60;93.70;;;;;;5096686;28;20027;-79
2022/12/01 11:24:42;;;;;;;40.78;22.80;;;11.60;92.90;;;;;;5096664;28;20032;-79
2022/12/01 11:27:30;;;;;;;38.50;22.67;;;11.70;92.30;;;;;;5096674;28;20358;-80
2022/12/01 11:30:06;;;;;;;39.75;22.70;;;11.70;92.10;;;;;;5095286;28;20495;-79
2022/12/01 11:32:38;;;;;;;38.75;23.77;;;11.80;91.20;;;;;;5096621;28;20111;-79
2022/12/01 11:35:24;;;;;;;40.70;22.88;;;11.70;91.00;;;;;;5094925;28;20055;-79
2022/12/01 11:37:56;;;;;;;37.90;22.52;;;11.70;90.10;;;;;;5094722;28;20506;-79
2022/12/01 11:40:26;;;;;;;38.85;22.10;;;11.60;89.50;;;;;;5096348;28;20468;-79
2022/12/01 11:43:01;;;;;;;35.35;20.50;;;11.60;88.80;;;;;;5096374;28;20062;-79
2022/12/01 11:45:33;;;;;;;36.92;20.67;;;11.60;87.40;;;;;;5094938;28;20424;-79
2022/12/01 11:48:06;;;;;;;33.17;19.83;;;11.60;86.10;;;;;;5096172;28;20321;-79
2022/12/01 11:50:37;;;;;;;35.67;20.70;;;11.60;85.80;;;;;;5096464;28;20028;-79
2022/12/01 11:53:22;;;;;;;34.20;19.30;;;11.60;85.20;;;;;;5094595;28;20020;-79
2022/12/01 11:55:48;;;;;;;34.47;18.98;;;11.60;86.20;;;;;;5095075;28;20074;-79
2022/12/01 11:58:14;;;;;;;33.50;18.02;;;11.70;85.70;;;;;;5094664;28;20028;-79
2022/12/01 12:00:51;;;;;;;32.53;18.77;;;11.70;85.50;;;;;;5094790;28;20107;-80
2022/12/01 12:03:50;;;;;;;35.38;19.20;;;11.70;85.30;;;;;;5094498;28;20032;-77
2022/12/01 12:06:29;;;;;;;33.50;19.60;;;11.70;85.10;;;;;;5088507;28;20093;-77
2022/12/01 12:09:07;;;;;;;34.40;18.65;;;11.70;84.60;;;;;;5094220;28;20120;-76
2022/12/01 12:12:06;;;;;;;35.72;19.30;;;11.70;84.40;;;;;;5094388;28;20028;-77
2022/12/01 12:14:40;;;;;;;36.42;19.50;;;11.60;84.10;;;;;;5094213;28;20024;-77
2022/12/01 12:17:21;;;;;;;32.75;19.02;;;11.60;84.30;;;;;;5094277;28;20056;-77
2022/12/01 12:20:19;;;;;;;37.05;19.33;;;11.60;83.80;;;;;;5094370;28;20016;-76
2022/12/01 12:23:06;;;;;;;31.25;17.77;;;11.60;83.90;;;;;;5095504;28;20024;-76
2022/12/01 12:25:45;;;;;;;32.35;19.77;;;11.50;83.60;;;;;;5095183;28;20050;-76
2022/12/01 12:28:33;;;;;;;31.60;18.88;;;11.40;83.10;;;;;;5094073;28;20048;-76
2022/12/01 12:31:04;;;;;;;32.80;18.30;;;11.40;82.50;;;;;;5094391;28;20036;-76
2022/12/01 12:34:24;;;;;;;32.95;18.00;;;11.20;81.50;;;;;;5094954;28;20051;-76
2022/12/01 12:37:09;;;;;;;29.52;16.83;;;11.10;81.10;;;;;;5072766;28;20546;-76
2022/12/01 12:39:59;;;;;;;27.58;15.00;;;11.20;81.90;;;;;;5092466;28;20081;-76
2022/12/01 12:42:52;;;;;;;28.73;17.25;;;11.60;82.90;;;;;;5093804;28;20024;-77
2022/12/01 12:45:25;;;;;;;29.02;15.77;;;12.00;82.50;;;;;;5095153;28;20027;-77
2022/12/01 12:48:34;;;;;;;27.10;16.05;;;12.50;82.50;;;;;;5094994;28;20103;-77
2022/12/01 12:51:23;;;;;;;23.08;13.10;;;13.10;80.60;;;;;;5093855;28;20020;-77
2022/12/01 12:53:56;;;;;;;23.77;13.65;;;13.80;80.60;;;;;;5095007;28;20031;-77
2022/12/01 12:56:45;;;;;;;23.92;13.75;;;14.10;78.70;;;;;;5084579;28;20028;-77
2022/12/01 13:00:06;;;;;;;24.48;15.45;;;14.00;75.90;;;;;;5071911;28;20031;-77
2022/12/01 13:02:40;;;;;;;27.55;15.82;;;13.80;72.90;;;;;;5009725;28;20393;-77
2022/12/01 13:05:09;;;;;;;;;;;13.50;72.90;;;;;;5090118;28;20028;-77